<?xml version="1.0" encoding="UTF-8" standalone="no" ?>
<gpx xmlns="http://www.topografix.com/GPX/1/1" xmlns:xsi="http://www.w3.org/2001/XMLSchema-instance" xsi:schemaLocation="http://www.topografix.com/GPX/1/1 http://www.topografix.com/GPX/1/1/gpx.xsd" version="1.1" creator="VisuGPX - https://www.visugpx.com">
  <metadata>
    <name>Campan Coulato</name>
  </metadata>
  <trk>
    <name><![CDATA[2025 03 16 Campan Pierre]]></name>
    <extensions>
      <line xmlns="http://www.topografix.com/GPX/gpx_style/0/2">
        <color>0000FF</color>
        <width>4</width>
      </line>
    </extensions>
    <trkseg>
      <trkpt lat="43.01817" lon="0.17828">
        <ele>652.8</ele>
        <time>2025-03-16T08:37:35.735Z</time>
      </trkpt>
      <trkpt lat="43.01811" lon="0.17833">
        <ele>652.8</ele>
        <time>2025-03-16T08:37:43.735Z</time>
      </trkpt>
      <trkpt lat="43.01801" lon="0.17838">
        <ele>653</ele>
        <time>2025-03-16T08:37:55.735Z</time>
      </trkpt>
      <trkpt lat="43.01791" lon="0.17844">
        <ele>653.4</ele>
        <time>2025-03-16T08:38:03.735Z</time>
      </trkpt>
      <trkpt lat="43.01793" lon="0.17848">
        <ele>653.1</ele>
        <time>2025-03-16T08:38:19.735Z</time>
      </trkpt>
      <trkpt lat="43.01796" lon="0.17853">
        <ele>652.9</ele>
        <time>2025-03-16T08:38:39.735Z</time>
      </trkpt>
      <trkpt lat="43.01797" lon="0.17856">
        <ele>652.7</ele>
      </trkpt>
      <trkpt lat="43.01801" lon="0.17854">
        <ele>652.5</ele>
        <time>2025-03-16T08:38:57.735Z</time>
      </trkpt>
      <trkpt lat="43.01807" lon="0.17855">
        <ele>652.2</ele>
        <time>2025-03-16T08:39:09.736Z</time>
      </trkpt>
      <trkpt lat="43.01809" lon="0.17853">
        <ele>652.2</ele>
        <time>2025-03-16T08:39:13.735Z</time>
      </trkpt>
      <trkpt lat="43.01815" lon="0.17853">
        <ele>652</ele>
        <time>2025-03-16T08:39:21.735Z</time>
      </trkpt>
      <trkpt lat="43.01825" lon="0.17848">
        <ele>651.8</ele>
        <time>2025-03-16T08:39:37.735Z</time>
      </trkpt>
      <trkpt lat="43.01833" lon="0.17848">
        <ele>651.5</ele>
        <time>2025-03-16T08:39:45.735Z</time>
      </trkpt>
      <trkpt lat="43.01837" lon="0.17852">
        <ele>651.2</ele>
        <time>2025-03-16T08:39:49.735Z</time>
      </trkpt>
      <trkpt lat="43.01835" lon="0.17863">
        <ele>650.8</ele>
        <time>2025-03-16T08:39:55.735Z</time>
      </trkpt>
      <trkpt lat="43.01833" lon="0.17866">
        <ele>650.6</ele>
        <time>2025-03-16T08:39:57.735Z</time>
      </trkpt>
      <trkpt lat="43.01825" lon="0.17868">
        <ele>650.9</ele>
        <time>2025-03-16T08:40:05.735Z</time>
      </trkpt>
      <trkpt lat="43.01818" lon="0.17875">
        <ele>651.1</ele>
        <time>2025-03-16T08:40:13.735Z</time>
      </trkpt>
      <trkpt lat="43.0181" lon="0.17878">
        <ele>651.6</ele>
        <time>2025-03-16T08:40:21.735Z</time>
      </trkpt>
      <trkpt lat="43.01791" lon="0.17892">
        <ele>652.4</ele>
        <time>2025-03-16T08:40:45.735Z</time>
      </trkpt>
      <trkpt lat="43.01787" lon="0.17901">
        <ele>652.3</ele>
        <time>2025-03-16T08:40:53.735Z</time>
      </trkpt>
      <trkpt lat="43.01776" lon="0.17912">
        <ele>652.2</ele>
        <time>2025-03-16T08:41:09.735Z</time>
      </trkpt>
      <trkpt lat="43.0177" lon="0.17914">
        <ele>652.4</ele>
        <time>2025-03-16T08:41:13.735Z</time>
      </trkpt>
      <trkpt lat="43.01763" lon="0.17911">
        <ele>652.7</ele>
        <time>2025-03-16T08:41:17.735Z</time>
      </trkpt>
      <trkpt lat="43.01758" lon="0.17917">
        <ele>652.7</ele>
        <time>2025-03-16T08:42:29.735Z</time>
      </trkpt>
      <trkpt lat="43.01758" lon="0.17921">
        <ele>652.6</ele>
        <time>2025-03-16T08:42:33.736Z</time>
      </trkpt>
      <trkpt lat="43.01755" lon="0.17925">
        <ele>652.5</ele>
        <time>2025-03-16T08:42:39.735Z</time>
      </trkpt>
      <trkpt lat="43.01753" lon="0.17925">
        <ele>652.6</ele>
        <time>2025-03-16T08:42:41.735Z</time>
      </trkpt>
      <trkpt lat="43.01753" lon="0.17927">
        <ele>652.5</ele>
        <time>2025-03-16T08:43:47.735Z</time>
      </trkpt>
      <trkpt lat="43.0175" lon="0.17936">
        <ele>652.3</ele>
        <time>2025-03-16T08:43:51.735Z</time>
      </trkpt>
      <trkpt lat="43.01747" lon="0.17938">
        <ele>652.4</ele>
        <time>2025-03-16T08:44:19.735Z</time>
      </trkpt>
      <trkpt lat="43.01741" lon="0.1795">
        <ele>652.4</ele>
        <time>2025-03-16T08:44:29.735Z</time>
      </trkpt>
      <trkpt lat="43.01736" lon="0.17955">
        <ele>652.5</ele>
        <time>2025-03-16T08:44:35.735Z</time>
      </trkpt>
      <trkpt lat="43.01732" lon="0.17961">
        <ele>652.5</ele>
        <time>2025-03-16T08:44:39.735Z</time>
      </trkpt>
      <trkpt lat="43.01726" lon="0.17967">
        <ele>652.3</ele>
        <time>2025-03-16T08:44:51.735Z</time>
      </trkpt>
      <trkpt lat="43.01717" lon="0.17973">
        <ele>652.4</ele>
        <time>2025-03-16T08:45:03.735Z</time>
      </trkpt>
      <trkpt lat="43.01715" lon="0.17978">
        <ele>652.8</ele>
        <time>2025-03-16T08:45:07.735Z</time>
      </trkpt>
      <trkpt lat="43.01718" lon="0.17984">
        <ele>652.9</ele>
        <time>2025-03-16T08:45:11.735Z</time>
      </trkpt>
      <trkpt lat="43.01714" lon="0.17995">
        <ele>653.5</ele>
        <time>2025-03-16T08:45:23.735Z</time>
      </trkpt>
      <trkpt lat="43.01706" lon="0.18001">
        <ele>653.7</ele>
        <time>2025-03-16T08:45:31.735Z</time>
      </trkpt>
      <trkpt lat="43.01711" lon="0.18009">
        <ele>656</ele>
        <time>2025-03-16T08:45:47.735Z</time>
      </trkpt>
      <trkpt lat="43.01713" lon="0.18015">
        <ele>658.1</ele>
        <time>2025-03-16T08:45:59.735Z</time>
      </trkpt>
      <trkpt lat="43.01708" lon="0.18029">
        <ele>660.7</ele>
        <time>2025-03-16T08:46:19.735Z</time>
      </trkpt>
      <trkpt lat="43.01696" lon="0.18034">
        <ele>660.3</ele>
        <time>2025-03-16T08:46:35.735Z</time>
      </trkpt>
      <trkpt lat="43.0169" lon="0.18044">
        <ele>662.9</ele>
        <time>2025-03-16T08:46:51.735Z</time>
      </trkpt>
      <trkpt lat="43.01687" lon="0.18046">
        <ele>663</ele>
        <time>2025-03-16T08:47:07.735Z</time>
      </trkpt>
      <trkpt lat="43.01686" lon="0.18048">
        <ele>663.6</ele>
        <time>2025-03-16T08:47:11.735Z</time>
      </trkpt>
      <trkpt lat="43.0168" lon="0.1805">
        <ele>662.9</ele>
        <time>2025-03-16T08:47:19.735Z</time>
      </trkpt>
      <trkpt lat="43.01678" lon="0.18047">
        <ele>661.5</ele>
        <time>2025-03-16T08:47:51.735Z</time>
      </trkpt>
      <trkpt lat="43.01675" lon="0.18047">
        <ele>660.5</ele>
        <time>2025-03-16T08:48:31.735Z</time>
      </trkpt>
      <trkpt lat="43.01672" lon="0.18047">
        <ele>660</ele>
        <time>2025-03-16T08:48:39.735Z</time>
      </trkpt>
      <trkpt lat="43.01666" lon="0.18054">
        <ele>660.5</ele>
        <time>2025-03-16T08:48:55.735Z</time>
      </trkpt>
      <trkpt lat="43.0166" lon="0.18057">
        <ele>660.5</ele>
        <time>2025-03-16T08:49:03.735Z</time>
      </trkpt>
      <trkpt lat="43.01657" lon="0.18067">
        <ele>664</ele>
        <time>2025-03-16T08:49:09.735Z</time>
      </trkpt>
      <trkpt lat="43.01653" lon="0.18069">
        <ele>663.7</ele>
        <time>2025-03-16T08:49:13.735Z</time>
      </trkpt>
      <trkpt lat="43.0165" lon="0.18075">
        <ele>665</ele>
        <time>2025-03-16T08:49:17.735Z</time>
      </trkpt>
      <trkpt lat="43.01647" lon="0.18076">
        <ele>664.8</ele>
        <time>2025-03-16T08:49:21.735Z</time>
      </trkpt>
      <trkpt lat="43.01646" lon="0.18081">
        <ele>666.2</ele>
        <time>2025-03-16T08:49:29.735Z</time>
      </trkpt>
      <trkpt lat="43.01636" lon="0.18094">
        <ele>668.8</ele>
        <time>2025-03-16T08:49:45.735Z</time>
      </trkpt>
      <trkpt lat="43.01632" lon="0.18097">
        <ele>668.4</ele>
        <time>2025-03-16T08:49:49.735Z</time>
      </trkpt>
      <trkpt lat="43.01628" lon="0.181">
        <ele>668.6</ele>
        <time>2025-03-16T08:50:17.735Z</time>
      </trkpt>
      <trkpt lat="43.01621" lon="0.1811">
        <ele>670</ele>
        <time>2025-03-16T08:50:33.735Z</time>
      </trkpt>
      <trkpt lat="43.01616" lon="0.18127">
        <ele>675.9</ele>
        <time>2025-03-16T08:50:49.735Z</time>
      </trkpt>
      <trkpt lat="43.01602" lon="0.18138">
        <ele>675.1</ele>
        <time>2025-03-16T08:51:13.735Z</time>
      </trkpt>
      <trkpt lat="43.01596" lon="0.1815">
        <ele>678.3</ele>
        <time>2025-03-16T08:51:29.735Z</time>
      </trkpt>
      <trkpt lat="43.01593" lon="0.18152">
        <ele>677.4</ele>
        <time>2025-03-16T08:51:37.735Z</time>
      </trkpt>
      <trkpt lat="43.0159" lon="0.18155">
        <ele>677.7</ele>
        <time>2025-03-16T08:51:41.735Z</time>
      </trkpt>
      <trkpt lat="43.01588" lon="0.18165">
        <ele>681.3</ele>
        <time>2025-03-16T08:51:49.735Z</time>
      </trkpt>
      <trkpt lat="43.01581" lon="0.18173">
        <ele>682.2</ele>
        <time>2025-03-16T08:51:57.735Z</time>
      </trkpt>
      <trkpt lat="43.01577" lon="0.18176">
        <ele>681.6</ele>
        <time>2025-03-16T08:51:59.735Z</time>
      </trkpt>
      <trkpt lat="43.01577" lon="0.18187">
        <ele>686.7</ele>
        <time>2025-03-16T08:52:07.735Z</time>
      </trkpt>
      <trkpt lat="43.01573" lon="0.18189">
        <ele>685.7</ele>
        <time>2025-03-16T08:52:11.735Z</time>
      </trkpt>
      <trkpt lat="43.01561" lon="0.18203">
        <ele>686.1</ele>
        <time>2025-03-16T08:52:43.735Z</time>
      </trkpt>
      <trkpt lat="43.01558" lon="0.18209">
        <ele>687.3</ele>
        <time>2025-03-16T08:52:59.735Z</time>
      </trkpt>
      <trkpt lat="43.01554" lon="0.18211">
        <ele>686.3</ele>
        <time>2025-03-16T08:53:07.735Z</time>
      </trkpt>
      <trkpt lat="43.01543" lon="0.18223">
        <ele>686.5</ele>
        <time>2025-03-16T08:53:27.735Z</time>
      </trkpt>
      <trkpt lat="43.01536" lon="0.18224">
        <ele>683.3</ele>
        <time>2025-03-16T08:53:39.735Z</time>
      </trkpt>
      <trkpt lat="43.01532" lon="0.18227">
        <ele>682.9</ele>
        <time>2025-03-16T08:53:43.735Z</time>
      </trkpt>
      <trkpt lat="43.01526" lon="0.18244">
        <ele>686.8</ele>
        <time>2025-03-16T08:53:55.735Z</time>
      </trkpt>
      <trkpt lat="43.01525" lon="0.18253">
        <ele>690.1</ele>
        <time>2025-03-16T08:53:59.735Z</time>
      </trkpt>
      <trkpt lat="43.01518" lon="0.1826">
        <ele>689.9</ele>
        <time>2025-03-16T08:54:11.735Z</time>
      </trkpt>
      <trkpt lat="43.01519" lon="0.18271">
        <ele>694.6</ele>
        <time>2025-03-16T08:54:15.735Z</time>
      </trkpt>
      <trkpt lat="43.0151" lon="0.18285">
        <ele>695.9</ele>
        <time>2025-03-16T08:54:31.735Z</time>
      </trkpt>
      <trkpt lat="43.01508" lon="0.18294">
        <ele>698.3</ele>
        <time>2025-03-16T08:54:39.735Z</time>
      </trkpt>
      <trkpt lat="43.01506" lon="0.18294">
        <ele>697.6</ele>
        <time>2025-03-16T08:54:41.735Z</time>
      </trkpt>
      <trkpt lat="43.01504" lon="0.18304">
        <ele>700</ele>
        <time>2025-03-16T08:54:45.735Z</time>
      </trkpt>
      <trkpt lat="43.01498" lon="0.18311">
        <ele>699.7</ele>
        <time>2025-03-16T08:54:53.735Z</time>
      </trkpt>
      <trkpt lat="43.01492" lon="0.18311">
        <ele>696.6</ele>
        <time>2025-03-16T08:55:01.735Z</time>
      </trkpt>
      <trkpt lat="43.0149" lon="0.18315">
        <ele>697.3</ele>
        <time>2025-03-16T08:55:09.735Z</time>
      </trkpt>
      <trkpt lat="43.01487" lon="0.18318">
        <ele>696.9</ele>
        <time>2025-03-16T08:55:13.735Z</time>
      </trkpt>
      <trkpt lat="43.01484" lon="0.18319">
        <ele>695.5</ele>
        <time>2025-03-16T08:55:15.735Z</time>
      </trkpt>
      <trkpt lat="43.0148" lon="0.18323">
        <ele>695</ele>
        <time>2025-03-16T08:55:27.735Z</time>
      </trkpt>
      <trkpt lat="43.01475" lon="0.1832">
        <ele>691.8</ele>
        <time>2025-03-16T08:55:31.735Z</time>
      </trkpt>
      <trkpt lat="43.01472" lon="0.18321">
        <ele>690.6</ele>
        <time>2025-03-16T08:55:35.735Z</time>
      </trkpt>
      <trkpt lat="43.01472" lon="0.18328">
        <ele>692.9</ele>
        <time>2025-03-16T08:55:39.735Z</time>
      </trkpt>
      <trkpt lat="43.01467" lon="0.18348">
        <ele>698.8</ele>
        <time>2025-03-16T08:55:55.735Z</time>
      </trkpt>
      <trkpt lat="43.01464" lon="0.18357">
        <ele>701</ele>
        <time>2025-03-16T08:56:51.735Z</time>
      </trkpt>
      <trkpt lat="43.01456" lon="0.1838">
        <ele>706.9</ele>
        <time>2025-03-16T08:57:23.735Z</time>
      </trkpt>
      <trkpt lat="43.01449" lon="0.18391">
        <ele>709.6</ele>
        <time>2025-03-16T08:57:39.735Z</time>
      </trkpt>
      <trkpt lat="43.0144" lon="0.18408">
        <ele>713.8</ele>
        <time>2025-03-16T08:57:59.735Z</time>
      </trkpt>
      <trkpt lat="43.01435" lon="0.18414">
        <ele>714.1</ele>
        <time>2025-03-16T08:58:15.735Z</time>
      </trkpt>
      <trkpt lat="43.01432" lon="0.18422">
        <ele>715.6</ele>
        <time>2025-03-16T08:58:31.735Z</time>
      </trkpt>
      <trkpt lat="43.01425" lon="0.18429">
        <ele>714.8</ele>
        <time>2025-03-16T08:59:03.735Z</time>
      </trkpt>
      <trkpt lat="43.0142" lon="0.18441">
        <ele>716</ele>
        <time>2025-03-16T08:59:19.735Z</time>
      </trkpt>
      <trkpt lat="43.01418" lon="0.18442">
        <ele>715.5</ele>
        <time>2025-03-16T08:59:23.735Z</time>
      </trkpt>
      <trkpt lat="43.0141" lon="0.18451">
        <ele>715</ele>
      </trkpt>
      <trkpt lat="43.01407" lon="0.18462">
        <ele>717.5</ele>
        <time>2025-03-16T09:00:43.735Z</time>
      </trkpt>
      <trkpt lat="43.01411" lon="0.18459">
        <ele>719</ele>
        <time>2025-03-16T09:01:31.735Z</time>
      </trkpt>
      <trkpt lat="43.01413" lon="0.18454">
        <ele>717.9</ele>
        <time>2025-03-16T09:01:55.735Z</time>
      </trkpt>
      <trkpt lat="43.01421" lon="0.1845">
        <ele>719.8</ele>
        <time>2025-03-16T09:02:19.735Z</time>
      </trkpt>
      <trkpt lat="43.01423" lon="0.18444">
        <ele>718.6</ele>
        <time>2025-03-16T09:02:27.735Z</time>
      </trkpt>
      <trkpt lat="43.01428" lon="0.18439">
        <ele>718.9</ele>
        <time>2025-03-16T09:02:35.735Z</time>
      </trkpt>
      <trkpt lat="43.01432" lon="0.18437">
        <ele>720.2</ele>
        <time>2025-03-16T09:02:43.735Z</time>
      </trkpt>
      <trkpt lat="43.01439" lon="0.18429">
        <ele>721.2</ele>
        <time>2025-03-16T09:02:59.735Z</time>
      </trkpt>
      <trkpt lat="43.01444" lon="0.18421">
        <ele>721.1</ele>
        <time>2025-03-16T09:03:15.735Z</time>
      </trkpt>
      <trkpt lat="43.01452" lon="0.18415">
        <ele>721.2</ele>
        <time>2025-03-16T09:03:29.735Z</time>
      </trkpt>
      <trkpt lat="43.01457" lon="0.18413">
        <ele>722.1</ele>
        <time>2025-03-16T09:03:37.735Z</time>
      </trkpt>
      <trkpt lat="43.01479" lon="0.18396">
        <ele>722.1</ele>
        <time>2025-03-16T09:04:00.735Z</time>
      </trkpt>
      <trkpt lat="43.01491" lon="0.18394">
        <ele>726.2</ele>
        <time>2025-03-16T09:04:16.735Z</time>
      </trkpt>
      <trkpt lat="43.0149" lon="0.18391">
        <ele>724.7</ele>
        <time>2025-03-16T09:04:20.735Z</time>
      </trkpt>
      <trkpt lat="43.01493" lon="0.18389">
        <ele>725.1</ele>
        <time>2025-03-16T09:04:28.735Z</time>
      </trkpt>
      <trkpt lat="43.01496" lon="0.18383">
        <ele>724.3</ele>
        <time>2025-03-16T09:04:44.735Z</time>
      </trkpt>
      <trkpt lat="43.01493" lon="0.18378">
        <ele>721.5</ele>
        <time>2025-03-16T09:05:00.735Z</time>
      </trkpt>
      <trkpt lat="43.01494" lon="0.18375">
        <ele>720.9</ele>
        <time>2025-03-16T09:05:04.735Z</time>
      </trkpt>
      <trkpt lat="43.01492" lon="0.1837">
        <ele>718.4</ele>
        <time>2025-03-16T09:05:12.735Z</time>
      </trkpt>
      <trkpt lat="43.01494" lon="0.18365">
        <ele>717.4</ele>
        <time>2025-03-16T09:05:20.735Z</time>
      </trkpt>
      <trkpt lat="43.01497" lon="0.18361">
        <ele>717.4</ele>
        <time>2025-03-16T09:05:28.735Z</time>
      </trkpt>
      <trkpt lat="43.01503" lon="0.18359">
        <ele>719.5</ele>
        <time>2025-03-16T09:05:36.736Z</time>
      </trkpt>
      <trkpt lat="43.01508" lon="0.18352">
        <ele>719.7</ele>
        <time>2025-03-16T09:05:52.735Z</time>
      </trkpt>
      <trkpt lat="43.01514" lon="0.18349">
        <ele>721.4</ele>
        <time>2025-03-16T09:06:08.735Z</time>
      </trkpt>
      <trkpt lat="43.01536" lon="0.18344">
        <ele>730.4</ele>
        <time>2025-03-16T09:06:56.735Z</time>
      </trkpt>
      <trkpt lat="43.01539" lon="0.18343">
        <ele>731</ele>
        <time>2025-03-16T09:08:32.735Z</time>
      </trkpt>
      <trkpt lat="43.01554" lon="0.18324">
        <ele>731.3</ele>
        <time>2025-03-16T09:09:36.735Z</time>
      </trkpt>
      <trkpt lat="43.01566" lon="0.18304">
        <ele>729.2</ele>
        <time>2025-03-16T09:10:08.735Z</time>
      </trkpt>
      <trkpt lat="43.01572" lon="0.18296">
        <ele>728.4</ele>
        <time>2025-03-16T09:10:24.735Z</time>
      </trkpt>
      <trkpt lat="43.01572" lon="0.18293">
        <ele>727.4</ele>
        <time>2025-03-16T09:10:28.735Z</time>
      </trkpt>
      <trkpt lat="43.01576" lon="0.18289">
        <ele>727.7</ele>
        <time>2025-03-16T09:10:36.735Z</time>
      </trkpt>
      <trkpt lat="43.01592" lon="0.18282">
        <ele>730.6</ele>
        <time>2025-03-16T09:11:16.735Z</time>
      </trkpt>
      <trkpt lat="43.016" lon="0.18278">
        <ele>732.1</ele>
        <time>2025-03-16T09:13:48.735Z</time>
      </trkpt>
      <trkpt lat="43.01605" lon="0.18275">
        <ele>732.9</ele>
        <time>2025-03-16T09:13:56.735Z</time>
      </trkpt>
      <trkpt lat="43.01616" lon="0.18273">
        <ele>736.4</ele>
        <time>2025-03-16T09:14:12.735Z</time>
      </trkpt>
      <trkpt lat="43.01619" lon="0.18275">
        <ele>738.5</ele>
        <time>2025-03-16T09:14:28.735Z</time>
      </trkpt>
      <trkpt lat="43.01623" lon="0.18274">
        <ele>739.7</ele>
        <time>2025-03-16T09:14:36.735Z</time>
      </trkpt>
      <trkpt lat="43.01628" lon="0.18263">
        <ele>738.3</ele>
        <time>2025-03-16T09:14:48.735Z</time>
      </trkpt>
      <trkpt lat="43.01635" lon="0.18255">
        <ele>738.9</ele>
        <time>2025-03-16T09:15:04.735Z</time>
      </trkpt>
      <trkpt lat="43.01641" lon="0.18242">
        <ele>736.9</ele>
        <time>2025-03-16T09:15:20.735Z</time>
      </trkpt>
      <trkpt lat="43.01652" lon="0.18234">
        <ele>738</ele>
        <time>2025-03-16T09:15:36.735Z</time>
      </trkpt>
      <trkpt lat="43.01657" lon="0.18232">
        <ele>739.4</ele>
        <time>2025-03-16T09:15:44.735Z</time>
      </trkpt>
      <trkpt lat="43.01662" lon="0.18226">
        <ele>739.3</ele>
        <time>2025-03-16T09:15:52.735Z</time>
      </trkpt>
      <trkpt lat="43.01668" lon="0.18223">
        <ele>740.8</ele>
        <time>2025-03-16T09:16:04.735Z</time>
      </trkpt>
      <trkpt lat="43.01672" lon="0.18216">
        <ele>739.7</ele>
        <time>2025-03-16T09:16:12.735Z</time>
      </trkpt>
      <trkpt lat="43.01686" lon="0.18201">
        <ele>740.3</ele>
        <time>2025-03-16T09:16:36.735Z</time>
      </trkpt>
      <trkpt lat="43.01697" lon="0.18181">
        <ele>737.8</ele>
        <time>2025-03-16T09:17:08.735Z</time>
      </trkpt>
      <trkpt lat="43.01707" lon="0.1817">
        <ele>737.7</ele>
        <time>2025-03-16T09:17:32.735Z</time>
      </trkpt>
      <trkpt lat="43.01716" lon="0.18164">
        <ele>738.2</ele>
        <time>2025-03-16T09:17:48.735Z</time>
      </trkpt>
      <trkpt lat="43.01724" lon="0.18153">
        <ele>736.1</ele>
        <time>2025-03-16T09:18:04.735Z</time>
      </trkpt>
      <trkpt lat="43.01731" lon="0.18154">
        <ele>737.8</ele>
        <time>2025-03-16T09:18:16.735Z</time>
      </trkpt>
      <trkpt lat="43.01741" lon="0.18151">
        <ele>738.2</ele>
        <time>2025-03-16T09:18:32.735Z</time>
      </trkpt>
      <trkpt lat="43.01746" lon="0.18147">
        <ele>737.4</ele>
        <time>2025-03-16T09:18:40.735Z</time>
      </trkpt>
      <trkpt lat="43.01751" lon="0.18147">
        <ele>738.2</ele>
        <time>2025-03-16T09:18:48.735Z</time>
      </trkpt>
      <trkpt lat="43.01764" lon="0.18134">
        <ele>733.3</ele>
        <time>2025-03-16T09:19:20.735Z</time>
      </trkpt>
      <trkpt lat="43.01774" lon="0.18126">
        <ele>730.3</ele>
        <time>2025-03-16T09:23:04.735Z</time>
      </trkpt>
      <trkpt lat="43.01784" lon="0.18123">
        <ele>730.6</ele>
        <time>2025-03-16T09:23:20.735Z</time>
      </trkpt>
      <trkpt lat="43.0179" lon="0.18121">
        <ele>730.2</ele>
        <time>2025-03-16T09:23:36.735Z</time>
      </trkpt>
      <trkpt lat="43.01798" lon="0.18112">
        <ele>728.1</ele>
        <time>2025-03-16T09:23:48.735Z</time>
      </trkpt>
      <trkpt lat="43.01807" lon="0.18107">
        <ele>727.5</ele>
        <time>2025-03-16T09:24:24.735Z</time>
      </trkpt>
      <trkpt lat="43.01818" lon="0.18098">
        <ele>725.7</ele>
        <time>2025-03-16T09:24:40.735Z</time>
      </trkpt>
      <trkpt lat="43.01826" lon="0.18089">
        <ele>723.3</ele>
        <time>2025-03-16T09:26:08.735Z</time>
      </trkpt>
      <trkpt lat="43.01829" lon="0.18087">
        <ele>723.2</ele>
        <time>2025-03-16T09:26:40.735Z</time>
      </trkpt>
      <trkpt lat="43.01832" lon="0.18087">
        <ele>724</ele>
        <time>2025-03-16T09:26:44.735Z</time>
      </trkpt>
      <trkpt lat="43.01843" lon="0.18079">
        <ele>721.9</ele>
        <time>2025-03-16T09:27:00.735Z</time>
      </trkpt>
      <trkpt lat="43.01851" lon="0.18075">
        <ele>721.4</ele>
        <time>2025-03-16T09:27:08.735Z</time>
      </trkpt>
      <trkpt lat="43.01862" lon="0.18062">
        <ele>717.8</ele>
        <time>2025-03-16T09:27:40.735Z</time>
      </trkpt>
      <trkpt lat="43.0187" lon="0.18039">
        <ele>708.4</ele>
        <time>2025-03-16T09:28:32.735Z</time>
      </trkpt>
      <trkpt lat="43.01872" lon="0.18033">
        <ele>706.4</ele>
        <time>2025-03-16T09:28:40.735Z</time>
      </trkpt>
      <trkpt lat="43.01877" lon="0.18031">
        <ele>706.7</ele>
        <time>2025-03-16T09:28:56.735Z</time>
      </trkpt>
      <trkpt lat="43.01902" lon="0.18005">
        <ele>700.2</ele>
        <time>2025-03-16T09:30:22.735Z</time>
      </trkpt>
      <trkpt lat="43.01921" lon="0.17997">
        <ele>701.6</ele>
        <time>2025-03-16T09:31:06.735Z</time>
      </trkpt>
      <trkpt lat="43.01925" lon="0.17999">
        <ele>703.7</ele>
        <time>2025-03-16T09:31:14.735Z</time>
      </trkpt>
      <trkpt lat="43.01935" lon="0.17996">
        <ele>705.1</ele>
        <time>2025-03-16T09:31:30.735Z</time>
      </trkpt>
      <trkpt lat="43.01951" lon="0.17997">
        <ele>709.8</ele>
        <time>2025-03-16T09:31:58.735Z</time>
      </trkpt>
      <trkpt lat="43.01956" lon="0.17992">
        <ele>708.9</ele>
        <time>2025-03-16T09:32:04.735Z</time>
      </trkpt>
      <trkpt lat="43.0196" lon="0.17995">
        <ele>710.8</ele>
        <time>2025-03-16T09:32:12.735Z</time>
      </trkpt>
      <trkpt lat="43.01968" lon="0.17994">
        <ele>712.4</ele>
        <time>2025-03-16T09:32:28.735Z</time>
      </trkpt>
      <trkpt lat="43.0198" lon="0.18003">
        <ele>718.4</ele>
        <time>2025-03-16T09:34:28.735Z</time>
      </trkpt>
      <trkpt lat="43.01987" lon="0.18">
        <ele>718.7</ele>
        <time>2025-03-16T09:34:44.735Z</time>
      </trkpt>
      <trkpt lat="43.02001" lon="0.18004">
        <ele>722.9</ele>
        <time>2025-03-16T09:35:16.735Z</time>
      </trkpt>
      <trkpt lat="43.02005" lon="0.18003">
        <ele>723.6</ele>
        <time>2025-03-16T09:35:24.735Z</time>
      </trkpt>
      <trkpt lat="43.02022" lon="0.17989">
        <ele>721.8</ele>
        <time>2025-03-16T09:35:56.735Z</time>
      </trkpt>
      <trkpt lat="43.0203" lon="0.17989">
        <ele>723.6</ele>
        <time>2025-03-16T09:36:12.735Z</time>
      </trkpt>
      <trkpt lat="43.02033" lon="0.17987">
        <ele>723.7</ele>
        <time>2025-03-16T09:36:28.735Z</time>
      </trkpt>
      <trkpt lat="43.02036" lon="0.17987">
        <ele>724.5</ele>
        <time>2025-03-16T09:36:36.735Z</time>
      </trkpt>
      <trkpt lat="43.02044" lon="0.17983">
        <ele>724</ele>
        <time>2025-03-16T09:40:12.735Z</time>
      </trkpt>
      <trkpt lat="43.02049" lon="0.17983">
        <ele>725.3</ele>
        <time>2025-03-16T09:40:22.735Z</time>
      </trkpt>
      <trkpt lat="43.02056" lon="0.17991">
        <ele>730.7</ele>
        <time>2025-03-16T09:40:38.735Z</time>
      </trkpt>
      <trkpt lat="43.02064" lon="0.17993">
        <ele>732.7</ele>
        <time>2025-03-16T09:40:54.735Z</time>
      </trkpt>
      <trkpt lat="43.02075" lon="0.17992">
        <ele>733.1</ele>
        <time>2025-03-16T09:41:10.735Z</time>
      </trkpt>
      <trkpt lat="43.02084" lon="0.17996">
        <ele>735.4</ele>
        <time>2025-03-16T09:41:26.735Z</time>
      </trkpt>
      <trkpt lat="43.02089" lon="0.17995">
        <ele>735.1</ele>
        <time>2025-03-16T09:41:34.735Z</time>
      </trkpt>
      <trkpt lat="43.02098" lon="0.18002">
        <ele>737.7</ele>
        <time>2025-03-16T09:41:58.735Z</time>
      </trkpt>
      <trkpt lat="43.02104" lon="0.18001">
        <ele>737.3</ele>
        <time>2025-03-16T09:42:14.735Z</time>
      </trkpt>
      <trkpt lat="43.02114" lon="0.18009">
        <ele>740</ele>
        <time>2025-03-16T09:42:46.735Z</time>
      </trkpt>
      <trkpt lat="43.02121" lon="0.18011">
        <ele>740.1</ele>
        <time>2025-03-16T09:43:02.735Z</time>
      </trkpt>
      <trkpt lat="43.02135" lon="0.1802">
        <ele>742.4</ele>
        <time>2025-03-16T09:43:30.735Z</time>
      </trkpt>
      <trkpt lat="43.02138" lon="0.18031">
        <ele>746.1</ele>
        <time>2025-03-16T09:43:48.735Z</time>
      </trkpt>
      <trkpt lat="43.02142" lon="0.18036">
        <ele>747.4</ele>
        <time>2025-03-16T09:44:10.735Z</time>
      </trkpt>
      <trkpt lat="43.02144" lon="0.18041">
        <ele>748.9</ele>
        <time>2025-03-16T09:44:42.735Z</time>
      </trkpt>
      <trkpt lat="43.02147" lon="0.18039">
        <ele>747.8</ele>
        <time>2025-03-16T09:45:22.735Z</time>
      </trkpt>
      <trkpt lat="43.02147" lon="0.18038">
        <ele>747.4</ele>
        <time>2025-03-16T09:45:30.735Z</time>
      </trkpt>
      <trkpt lat="43.02151" lon="0.18036">
        <ele>746.3</ele>
        <time>2025-03-16T09:45:46.735Z</time>
      </trkpt>
      <trkpt lat="43.02154" lon="0.18029">
        <ele>743.4</ele>
        <time>2025-03-16T09:46:50.735Z</time>
      </trkpt>
      <trkpt lat="43.02163" lon="0.18032">
        <ele>742.9</ele>
        <time>2025-03-16T09:48:02.735Z</time>
      </trkpt>
      <trkpt lat="43.02175" lon="0.18029">
        <ele>741</ele>
        <time>2025-03-16T09:48:18.735Z</time>
      </trkpt>
      <trkpt lat="43.02178" lon="0.18032">
        <ele>741.8</ele>
        <time>2025-03-16T09:48:22.735Z</time>
      </trkpt>
      <trkpt lat="43.02186" lon="0.18031">
        <ele>741.4</ele>
        <time>2025-03-16T09:48:30.735Z</time>
      </trkpt>
      <trkpt lat="43.02193" lon="0.18034">
        <ele>741.7</ele>
        <time>2025-03-16T09:48:38.735Z</time>
      </trkpt>
      <trkpt lat="43.02198" lon="0.18042">
        <ele>745.1</ele>
        <time>2025-03-16T09:48:46.735Z</time>
      </trkpt>
      <trkpt lat="43.02204" lon="0.18042">
        <ele>746.6</ele>
        <time>2025-03-16T09:48:54.735Z</time>
      </trkpt>
      <trkpt lat="43.02208" lon="0.1804">
        <ele>747</ele>
        <time>2025-03-16T09:51:46.735Z</time>
      </trkpt>
      <trkpt lat="43.02201" lon="0.18025">
        <ele>741.5</ele>
        <time>2025-03-16T09:52:18.735Z</time>
      </trkpt>
      <trkpt lat="43.02201" lon="0.18003">
        <ele>737.1</ele>
        <time>2025-03-16T09:52:54.735Z</time>
      </trkpt>
      <trkpt lat="43.02198" lon="0.18002">
        <ele>736</ele>
        <time>2025-03-16T09:52:58.735Z</time>
      </trkpt>
      <trkpt lat="43.02193" lon="0.17994">
        <ele>733.1</ele>
        <time>2025-03-16T09:53:14.735Z</time>
      </trkpt>
      <trkpt lat="43.02192" lon="0.17988">
        <ele>732.1</ele>
        <time>2025-03-16T09:54:18.735Z</time>
      </trkpt>
      <trkpt lat="43.02189" lon="0.17983">
        <ele>731</ele>
        <time>2025-03-16T09:54:26.735Z</time>
      </trkpt>
      <trkpt lat="43.02193" lon="0.17971">
        <ele>729.6</ele>
        <time>2025-03-16T09:54:42.735Z</time>
      </trkpt>
      <trkpt lat="43.02195" lon="0.17959">
        <ele>728.1</ele>
        <time>2025-03-16T09:54:58.735Z</time>
      </trkpt>
      <trkpt lat="43.022" lon="0.17941">
        <ele>728.1</ele>
        <time>2025-03-16T09:55:14.735Z</time>
      </trkpt>
      <trkpt lat="43.02212" lon="0.17921">
        <ele>731</ele>
        <time>2025-03-16T09:55:38.735Z</time>
      </trkpt>
      <trkpt lat="43.02212" lon="0.17917">
        <ele>730.7</ele>
        <time>2025-03-16T09:55:46.735Z</time>
      </trkpt>
      <trkpt lat="43.02216" lon="0.17911">
        <ele>731.7</ele>
        <time>2025-03-16T09:55:54.735Z</time>
      </trkpt>
      <trkpt lat="43.02216" lon="0.17905">
        <ele>731.1</ele>
        <time>2025-03-16T09:56:02.735Z</time>
      </trkpt>
      <trkpt lat="43.02229" lon="0.1787">
        <ele>731.6</ele>
        <time>2025-03-16T09:56:34.735Z</time>
      </trkpt>
      <trkpt lat="43.02237" lon="0.17863">
        <ele>733.3</ele>
        <time>2025-03-16T09:57:06.735Z</time>
      </trkpt>
      <trkpt lat="43.02251" lon="0.17855">
        <ele>736.5</ele>
        <time>2025-03-16T09:57:38.735Z</time>
      </trkpt>
      <trkpt lat="43.02261" lon="0.17851">
        <ele>738.7</ele>
        <time>2025-03-16T09:57:54.735Z</time>
      </trkpt>
      <trkpt lat="43.02267" lon="0.17849">
        <ele>739.8</ele>
        <time>2025-03-16T09:58:18.735Z</time>
      </trkpt>
      <trkpt lat="43.02272" lon="0.17847">
        <ele>741</ele>
        <time>2025-03-16T09:58:26.735Z</time>
      </trkpt>
      <trkpt lat="43.02287" lon="0.1783">
        <ele>739.4</ele>
        <time>2025-03-16T09:58:50.735Z</time>
      </trkpt>
      <trkpt lat="43.02297" lon="0.17828">
        <ele>741.4</ele>
        <time>2025-03-16T09:59:10.735Z</time>
      </trkpt>
      <trkpt lat="43.02307" lon="0.17841">
        <ele>749.2</ele>
        <time>2025-03-16T09:59:42.735Z</time>
      </trkpt>
      <trkpt lat="43.0232" lon="0.17841">
        <ele>752.2</ele>
        <time>2025-03-16T10:00:14.735Z</time>
      </trkpt>
      <trkpt lat="43.02328" lon="0.17837">
        <ele>752.5</ele>
        <time>2025-03-16T10:00:38.735Z</time>
      </trkpt>
      <trkpt lat="43.02333" lon="0.17839">
        <ele>754.1</ele>
        <time>2025-03-16T10:00:46.735Z</time>
      </trkpt>
      <trkpt lat="43.02337" lon="0.17837">
        <ele>754.3</ele>
        <time>2025-03-16T10:01:02.735Z</time>
      </trkpt>
      <trkpt lat="43.0234" lon="0.1784">
        <ele>756.2</ele>
        <time>2025-03-16T10:01:10.735Z</time>
      </trkpt>
      <trkpt lat="43.02343" lon="0.17839">
        <ele>756.3</ele>
        <time>2025-03-16T10:01:18.735Z</time>
      </trkpt>
      <trkpt lat="43.02355" lon="0.17843">
        <ele>760.4</ele>
        <time>2025-03-16T10:01:38.735Z</time>
      </trkpt>
      <trkpt lat="43.02359" lon="0.17848">
        <ele>763.4</ele>
        <time>2025-03-16T10:01:46.735Z</time>
      </trkpt>
      <trkpt lat="43.02364" lon="0.17849">
        <ele>764.6</ele>
        <time>2025-03-16T10:01:58.735Z</time>
      </trkpt>
      <trkpt lat="43.02365" lon="0.17848">
        <ele>764.4</ele>
        <time>2025-03-16T10:02:06.735Z</time>
      </trkpt>
      <trkpt lat="43.02368" lon="0.17851">
        <ele>766.1</ele>
        <time>2025-03-16T10:02:38.735Z</time>
      </trkpt>
      <trkpt lat="43.02375" lon="0.17853">
        <ele>768.4</ele>
        <time>2025-03-16T10:03:42.735Z</time>
      </trkpt>
      <trkpt lat="43.02374" lon="0.17852">
        <ele>768.1</ele>
        <time>2025-03-16T10:07:58.735Z</time>
      </trkpt>
      <trkpt lat="43.02377" lon="0.17853">
        <ele>769</ele>
        <time>2025-03-16T10:09:18.735Z</time>
      </trkpt>
      <trkpt lat="43.02382" lon="0.17853">
        <ele>770.1</ele>
        <time>2025-03-16T10:09:26.735Z</time>
      </trkpt>
      <trkpt lat="43.0239" lon="0.17858">
        <ele>773.8</ele>
        <time>2025-03-16T10:09:42.735Z</time>
      </trkpt>
      <trkpt lat="43.02402" lon="0.17857">
        <ele>775.8</ele>
        <time>2025-03-16T10:09:58.735Z</time>
      </trkpt>
      <trkpt lat="43.02426" lon="0.17866">
        <ele>783.8</ele>
        <time>2025-03-16T10:10:42.735Z</time>
      </trkpt>
      <trkpt lat="43.02435" lon="0.17865">
        <ele>785.3</ele>
        <time>2025-03-16T10:10:56.735Z</time>
      </trkpt>
      <trkpt lat="43.0244" lon="0.17866">
        <ele>786.9</ele>
        <time>2025-03-16T10:11:04.735Z</time>
      </trkpt>
      <trkpt lat="43.02451" lon="0.17865">
        <ele>788.6</ele>
        <time>2025-03-16T10:11:32.735Z</time>
      </trkpt>
      <trkpt lat="43.02453" lon="0.17863">
        <ele>787.8</ele>
        <time>2025-03-16T10:11:36.735Z</time>
      </trkpt>
      <trkpt lat="43.02456" lon="0.17863">
        <ele>788.4</ele>
        <time>2025-03-16T10:11:40.736Z</time>
      </trkpt>
      <trkpt lat="43.02459" lon="0.1787">
        <ele>791.9</ele>
        <time>2025-03-16T10:11:56.735Z</time>
      </trkpt>
      <trkpt lat="43.02466" lon="0.1787">
        <ele>792.9</ele>
        <time>2025-03-16T10:12:20.735Z</time>
      </trkpt>
      <trkpt lat="43.02474" lon="0.1788">
        <ele>799.1</ele>
        <time>2025-03-16T10:12:36.735Z</time>
      </trkpt>
      <trkpt lat="43.02486" lon="0.17882">
        <ele>801.1</ele>
        <time>2025-03-16T10:13:08.735Z</time>
      </trkpt>
      <trkpt lat="43.02495" lon="0.17886">
        <ele>803.4</ele>
        <time>2025-03-16T10:13:32.735Z</time>
      </trkpt>
      <trkpt lat="43.02509" lon="0.179">
        <ele>811.2</ele>
        <time>2025-03-16T10:13:52.735Z</time>
      </trkpt>
      <trkpt lat="43.02511" lon="0.179">
        <ele>811.3</ele>
        <time>2025-03-16T10:13:56.735Z</time>
      </trkpt>
      <trkpt lat="43.02514" lon="0.17899">
        <ele>811.7</ele>
        <time>2025-03-16T10:14:12.735Z</time>
      </trkpt>
      <trkpt lat="43.02522" lon="0.17898">
        <ele>812.3</ele>
        <time>2025-03-16T10:14:28.735Z</time>
      </trkpt>
      <trkpt lat="43.02524" lon="0.17894">
        <ele>811.3</ele>
        <time>2025-03-16T10:14:32.735Z</time>
      </trkpt>
      <trkpt lat="43.02529" lon="0.17893">
        <ele>811.9</ele>
        <time>2025-03-16T10:14:40.735Z</time>
      </trkpt>
      <trkpt lat="43.02535" lon="0.17887">
        <ele>813</ele>
        <time>2025-03-16T10:14:56.735Z</time>
      </trkpt>
      <trkpt lat="43.02537" lon="0.17884">
        <ele>812.8</ele>
        <time>2025-03-16T10:15:04.735Z</time>
      </trkpt>
      <trkpt lat="43.02543" lon="0.17881">
        <ele>815.1</ele>
        <time>2025-03-16T10:15:36.735Z</time>
      </trkpt>
      <trkpt lat="43.02546" lon="0.17877">
        <ele>815.4</ele>
        <time>2025-03-16T10:15:56.735Z</time>
      </trkpt>
      <trkpt lat="43.02547" lon="0.17879">
        <ele>816.5</ele>
        <time>2025-03-16T10:16:04.735Z</time>
      </trkpt>
      <trkpt lat="43.02554" lon="0.17861">
        <ele>816.1</ele>
        <time>2025-03-16T10:17:00.735Z</time>
      </trkpt>
      <trkpt lat="43.02557" lon="0.17857">
        <ele>816.4</ele>
        <time>2025-03-16T10:20:28.735Z</time>
      </trkpt>
      <trkpt lat="43.02555" lon="0.17849">
        <ele>813.5</ele>
        <time>2025-03-16T10:27:36.735Z</time>
      </trkpt>
      <trkpt lat="43.02558" lon="0.17846">
        <ele>813.7</ele>
        <time>2025-03-16T10:28:20.735Z</time>
      </trkpt>
      <trkpt lat="43.02559" lon="0.17843">
        <ele>813.1</ele>
        <time>2025-03-16T10:28:24.735Z</time>
      </trkpt>
      <trkpt lat="43.02576" lon="0.17833">
        <ele>817</ele>
        <time>2025-03-16T10:28:48.735Z</time>
      </trkpt>
      <trkpt lat="43.02596" lon="0.17812">
        <ele>812.5</ele>
        <time>2025-03-16T10:29:20.735Z</time>
      </trkpt>
      <trkpt lat="43.02601" lon="0.17802">
        <ele>808.3</ele>
        <time>2025-03-16T10:29:36.735Z</time>
      </trkpt>
      <trkpt lat="43.02609" lon="0.17798">
        <ele>807.6</ele>
        <time>2025-03-16T10:29:44.735Z</time>
      </trkpt>
      <trkpt lat="43.02614" lon="0.1779">
        <ele>804.6</ele>
        <time>2025-03-16T10:29:52.735Z</time>
      </trkpt>
      <trkpt lat="43.02619" lon="0.17787">
        <ele>803.6</ele>
        <time>2025-03-16T10:30:00.735Z</time>
      </trkpt>
      <trkpt lat="43.02626" lon="0.17775">
        <ele>798.5</ele>
        <time>2025-03-16T10:30:16.735Z</time>
      </trkpt>
      <trkpt lat="43.02632" lon="0.1777">
        <ele>797</ele>
        <time>2025-03-16T10:30:24.735Z</time>
      </trkpt>
      <trkpt lat="43.02643" lon="0.17768">
        <ele>797.3</ele>
        <time>2025-03-16T10:30:36.735Z</time>
      </trkpt>
      <trkpt lat="43.02653" lon="0.1776">
        <ele>793.8</ele>
        <time>2025-03-16T10:30:46.736Z</time>
      </trkpt>
      <trkpt lat="43.02659" lon="0.17757">
        <ele>792.6</ele>
        <time>2025-03-16T10:30:54.735Z</time>
      </trkpt>
      <trkpt lat="43.02662" lon="0.17756">
        <ele>792.3</ele>
        <time>2025-03-16T10:30:58.735Z</time>
      </trkpt>
      <trkpt lat="43.02666" lon="0.17752">
        <ele>790.8</ele>
        <time>2025-03-16T10:31:02.735Z</time>
      </trkpt>
      <trkpt lat="43.02672" lon="0.17751">
        <ele>790.3</ele>
        <time>2025-03-16T10:31:10.735Z</time>
      </trkpt>
      <trkpt lat="43.02682" lon="0.17745">
        <ele>786.9</ele>
        <time>2025-03-16T10:31:26.735Z</time>
      </trkpt>
      <trkpt lat="43.02692" lon="0.17747">
        <ele>787.4</ele>
        <time>2025-03-16T10:31:34.735Z</time>
      </trkpt>
      <trkpt lat="43.02694" lon="0.17742">
        <ele>785.3</ele>
        <time>2025-03-16T10:31:40.735Z</time>
      </trkpt>
      <trkpt lat="43.02707" lon="0.17742">
        <ele>783.1</ele>
        <time>2025-03-16T10:31:56.735Z</time>
      </trkpt>
      <trkpt lat="43.02714" lon="0.17743">
        <ele>782.4</ele>
        <time>2025-03-16T10:32:04.735Z</time>
      </trkpt>
      <trkpt lat="43.02718" lon="0.17742">
        <ele>781.3</ele>
        <time>2025-03-16T10:32:08.735Z</time>
      </trkpt>
      <trkpt lat="43.02728" lon="0.17744">
        <ele>781.2</ele>
        <time>2025-03-16T10:32:24.735Z</time>
      </trkpt>
      <trkpt lat="43.02736" lon="0.17749">
        <ele>782.7</ele>
        <time>2025-03-16T10:32:36.735Z</time>
      </trkpt>
      <trkpt lat="43.02739" lon="0.17749">
        <ele>782.3</ele>
        <time>2025-03-16T10:32:40.735Z</time>
      </trkpt>
      <trkpt lat="43.02747" lon="0.17742">
        <ele>778.9</ele>
        <time>2025-03-16T10:32:56.735Z</time>
      </trkpt>
      <trkpt lat="43.02753" lon="0.17741">
        <ele>779.3</ele>
        <time>2025-03-16T10:33:00.735Z</time>
      </trkpt>
      <trkpt lat="43.02754" lon="0.17737">
        <ele>777.9</ele>
        <time>2025-03-16T10:33:04.735Z</time>
      </trkpt>
      <trkpt lat="43.02759" lon="0.17731">
        <ele>777</ele>
        <time>2025-03-16T10:33:24.735Z</time>
      </trkpt>
      <trkpt lat="43.02764" lon="0.17722">
        <ele>774.8</ele>
        <time>2025-03-16T10:33:32.735Z</time>
      </trkpt>
      <trkpt lat="43.02777" lon="0.17711">
        <ele>774.1</ele>
        <time>2025-03-16T10:33:48.735Z</time>
      </trkpt>
      <trkpt lat="43.02786" lon="0.17708">
        <ele>776</ele>
        <time>2025-03-16T10:33:54.735Z</time>
      </trkpt>
      <trkpt lat="43.02789" lon="0.17705">
        <ele>775.8</ele>
        <time>2025-03-16T10:33:56.735Z</time>
      </trkpt>
      <trkpt lat="43.02803" lon="0.17701">
        <ele>778.7</ele>
        <time>2025-03-16T10:34:08.735Z</time>
      </trkpt>
      <trkpt lat="43.02804" lon="0.17699">
        <ele>778.1</ele>
        <time>2025-03-16T10:34:10.735Z</time>
      </trkpt>
      <trkpt lat="43.02807" lon="0.17698">
        <ele>778.9</ele>
        <time>2025-03-16T10:34:14.735Z</time>
      </trkpt>
      <trkpt lat="43.02808" lon="0.17693">
        <ele>776.8</ele>
        <time>2025-03-16T10:34:22.735Z</time>
      </trkpt>
      <trkpt lat="43.02807" lon="0.17681">
        <ele>771.4</ele>
        <time>2025-03-16T10:36:18.735Z</time>
      </trkpt>
      <trkpt lat="43.02805" lon="0.17678">
        <ele>769.9</ele>
        <time>2025-03-16T10:36:50.735Z</time>
      </trkpt>
      <trkpt lat="43.0281" lon="0.17672">
        <ele>768.4</ele>
        <time>2025-03-16T10:37:30.735Z</time>
      </trkpt>
      <trkpt lat="43.02812" lon="0.17671">
        <ele>768.5</ele>
        <time>2025-03-16T10:37:46.735Z</time>
      </trkpt>
      <trkpt lat="43.02816" lon="0.17663">
        <ele>765.9</ele>
        <time>2025-03-16T10:38:34.735Z</time>
      </trkpt>
      <trkpt lat="43.02816" lon="0.17664">
        <ele>766.6</ele>
        <time>2025-03-16T10:38:50.735Z</time>
      </trkpt>
      <trkpt lat="43.02818" lon="0.17659">
        <ele>765</ele>
        <time>2025-03-16T10:40:44.735Z</time>
      </trkpt>
      <trkpt lat="43.02816" lon="0.17655">
        <ele>762.7</ele>
        <time>2025-03-16T10:41:16.735Z</time>
      </trkpt>
      <trkpt lat="43.02818" lon="0.17649">
        <ele>760.9</ele>
        <time>2025-03-16T10:41:24.735Z</time>
      </trkpt>
      <trkpt lat="43.02826" lon="0.17642">
        <ele>759.7</ele>
        <time>2025-03-16T10:41:48.735Z</time>
      </trkpt>
      <trkpt lat="43.02828" lon="0.17642">
        <ele>759.9</ele>
        <time>2025-03-16T10:42:20.735Z</time>
      </trkpt>
      <trkpt lat="43.02835" lon="0.17633">
        <ele>757.7</ele>
        <time>2025-03-16T10:42:44.735Z</time>
      </trkpt>
      <trkpt lat="43.02833" lon="0.17626">
        <ele>754.2</ele>
      </trkpt>
      <trkpt lat="43.02826" lon="0.17634">
        <ele>756.3</ele>
        <time>2025-03-16T10:43:00.735Z</time>
      </trkpt>
      <trkpt lat="43.02821" lon="0.17633">
        <ele>754.9</ele>
        <time>2025-03-16T10:43:48.735Z</time>
      </trkpt>
      <trkpt lat="43.0282" lon="0.17638">
        <ele>756.7</ele>
        <time>2025-03-16T10:44:04.735Z</time>
      </trkpt>
      <trkpt lat="43.02814" lon="0.17644">
        <ele>757.7</ele>
        <time>2025-03-16T10:44:20.735Z</time>
      </trkpt>
      <trkpt lat="43.02812" lon="0.17644">
        <ele>757.3</ele>
        <time>2025-03-16T10:44:24.735Z</time>
      </trkpt>
      <trkpt lat="43.02809" lon="0.1765">
        <ele>759.4</ele>
        <time>2025-03-16T10:44:32.735Z</time>
      </trkpt>
      <trkpt lat="43.02801" lon="0.17658">
        <ele>760.5</ele>
        <time>2025-03-16T10:44:48.735Z</time>
      </trkpt>
      <trkpt lat="43.0279" lon="0.17664">
        <ele>760</ele>
        <time>2025-03-16T10:45:00.735Z</time>
      </trkpt>
      <trkpt lat="43.02787" lon="0.17662">
        <ele>758.4</ele>
        <time>2025-03-16T10:45:08.735Z</time>
      </trkpt>
      <trkpt lat="43.02773" lon="0.17666">
        <ele>756.5</ele>
        <time>2025-03-16T10:45:24.735Z</time>
      </trkpt>
      <trkpt lat="43.02766" lon="0.17688">
        <ele>762.8</ele>
        <time>2025-03-16T10:45:48.735Z</time>
      </trkpt>
      <trkpt lat="43.02756" lon="0.17683">
        <ele>758.2</ele>
        <time>2025-03-16T10:46:20.735Z</time>
      </trkpt>
      <trkpt lat="43.02752" lon="0.17682">
        <ele>757</ele>
        <time>2025-03-16T10:46:36.735Z</time>
      </trkpt>
      <trkpt lat="43.0275" lon="0.17679">
        <ele>755.2</ele>
        <time>2025-03-16T10:46:44.735Z</time>
      </trkpt>
      <trkpt lat="43.02745" lon="0.17676">
        <ele>754</ele>
        <time>2025-03-16T10:46:52.735Z</time>
      </trkpt>
      <trkpt lat="43.02737" lon="0.17667">
        <ele>749.8</ele>
        <time>2025-03-16T10:47:08.735Z</time>
      </trkpt>
      <trkpt lat="43.02733" lon="0.17664">
        <ele>748.3</ele>
        <time>2025-03-16T10:47:20.735Z</time>
      </trkpt>
      <trkpt lat="43.02725" lon="0.17657">
        <ele>744.7</ele>
        <time>2025-03-16T10:47:32.735Z</time>
      </trkpt>
      <trkpt lat="43.02721" lon="0.17656">
        <ele>744.2</ele>
        <time>2025-03-16T10:47:36.735Z</time>
      </trkpt>
      <trkpt lat="43.02708" lon="0.17643">
        <ele>739.3</ele>
        <time>2025-03-16T10:48:08.735Z</time>
      </trkpt>
      <trkpt lat="43.02703" lon="0.1764">
        <ele>737.9</ele>
        <time>2025-03-16T10:48:32.736Z</time>
      </trkpt>
      <trkpt lat="43.02707" lon="0.17634">
        <ele>735.5</ele>
        <time>2025-03-16T10:49:16.735Z</time>
      </trkpt>
      <trkpt lat="43.02705" lon="0.17631">
        <ele>734.2</ele>
        <time>2025-03-16T10:49:32.735Z</time>
      </trkpt>
      <trkpt lat="43.02699" lon="0.17625">
        <ele>731.7</ele>
        <time>2025-03-16T10:49:48.735Z</time>
      </trkpt>
      <trkpt lat="43.02699" lon="0.17623">
        <ele>731</ele>
        <time>2025-03-16T10:49:52.735Z</time>
      </trkpt>
      <trkpt lat="43.02691" lon="0.17622">
        <ele>730.2</ele>
        <time>2025-03-16T10:50:08.735Z</time>
      </trkpt>
      <trkpt lat="43.02686" lon="0.17619">
        <ele>728.7</ele>
        <time>2025-03-16T10:50:24.735Z</time>
      </trkpt>
      <trkpt lat="43.02683" lon="0.17621">
        <ele>729.7</ele>
        <time>2025-03-16T10:50:32.735Z</time>
      </trkpt>
      <trkpt lat="43.02672" lon="0.17618">
        <ele>728.1</ele>
        <time>2025-03-16T10:50:48.735Z</time>
      </trkpt>
      <trkpt lat="43.0267" lon="0.17616">
        <ele>727.1</ele>
        <time>2025-03-16T10:50:52.735Z</time>
      </trkpt>
      <trkpt lat="43.02647" lon="0.17618">
        <ele>725.8</ele>
        <time>2025-03-16T10:51:22.735Z</time>
      </trkpt>
      <trkpt lat="43.02639" lon="0.17616">
        <ele>724.3</ele>
        <time>2025-03-16T10:51:30.735Z</time>
      </trkpt>
      <trkpt lat="43.0263" lon="0.17618">
        <ele>723.9</ele>
        <time>2025-03-16T10:51:38.735Z</time>
      </trkpt>
      <trkpt lat="43.02627" lon="0.17616">
        <ele>722.6</ele>
        <time>2025-03-16T10:51:46.735Z</time>
      </trkpt>
      <trkpt lat="43.02612" lon="0.17616">
        <ele>721.2</ele>
        <time>2025-03-16T10:52:02.735Z</time>
      </trkpt>
      <trkpt lat="43.02609" lon="0.17614">
        <ele>719.9</ele>
        <time>2025-03-16T10:52:10.735Z</time>
      </trkpt>
      <trkpt lat="43.02597" lon="0.17614">
        <ele>717.9</ele>
        <time>2025-03-16T10:52:30.735Z</time>
      </trkpt>
      <trkpt lat="43.02596" lon="0.17612">
        <ele>717.1</ele>
        <time>2025-03-16T10:52:34.735Z</time>
      </trkpt>
      <trkpt lat="43.02578" lon="0.17613">
        <ele>714.7</ele>
        <time>2025-03-16T10:52:50.735Z</time>
      </trkpt>
      <trkpt lat="43.02568" lon="0.17618">
        <ele>715.1</ele>
        <time>2025-03-16T10:52:58.735Z</time>
      </trkpt>
      <trkpt lat="43.02554" lon="0.1761">
        <ele>709.3</ele>
        <time>2025-03-16T10:53:30.735Z</time>
      </trkpt>
      <trkpt lat="43.02539" lon="0.17614">
        <ele>708.1</ele>
        <time>2025-03-16T10:53:46.735Z</time>
      </trkpt>
      <trkpt lat="43.02524" lon="0.17613">
        <ele>705.1</ele>
        <time>2025-03-16T10:54:02.735Z</time>
      </trkpt>
      <trkpt lat="43.02516" lon="0.17616">
        <ele>704.8</ele>
        <time>2025-03-16T10:54:18.735Z</time>
      </trkpt>
      <trkpt lat="43.02504" lon="0.17617">
        <ele>703.3</ele>
        <time>2025-03-16T10:54:34.735Z</time>
      </trkpt>
      <trkpt lat="43.02497" lon="0.17614">
        <ele>700.5</ele>
        <time>2025-03-16T10:56:26.735Z</time>
      </trkpt>
      <trkpt lat="43.02487" lon="0.17615">
        <ele>699.2</ele>
        <time>2025-03-16T10:57:06.735Z</time>
      </trkpt>
      <trkpt lat="43.0248" lon="0.17619">
        <ele>699.4</ele>
        <time>2025-03-16T10:57:14.735Z</time>
      </trkpt>
      <trkpt lat="43.02478" lon="0.17622">
        <ele>700.3</ele>
        <time>2025-03-16T10:57:18.735Z</time>
      </trkpt>
      <trkpt lat="43.02464" lon="0.17623">
        <ele>697.8</ele>
        <time>2025-03-16T10:57:46.735Z</time>
      </trkpt>
      <trkpt lat="43.02448" lon="0.17627">
        <ele>695.9</ele>
        <time>2025-03-16T10:58:02.735Z</time>
      </trkpt>
      <trkpt lat="43.02435" lon="0.17633">
        <ele>695.2</ele>
        <time>2025-03-16T10:58:18.735Z</time>
      </trkpt>
      <trkpt lat="43.02431" lon="0.17639">
        <ele>696.2</ele>
        <time>2025-03-16T10:58:26.735Z</time>
      </trkpt>
      <trkpt lat="43.02428" lon="0.17653">
        <ele>700.1</ele>
        <time>2025-03-16T10:58:50.735Z</time>
      </trkpt>
      <trkpt lat="43.02422" lon="0.17654">
        <ele>698.9</ele>
        <time>2025-03-16T10:59:22.735Z</time>
      </trkpt>
      <trkpt lat="43.02411" lon="0.17661">
        <ele>699.5</ele>
        <time>2025-03-16T10:59:38.735Z</time>
      </trkpt>
      <trkpt lat="43.02402" lon="0.17662">
        <ele>698.4</ele>
        <time>2025-03-16T10:59:48.735Z</time>
      </trkpt>
      <trkpt lat="43.02393" lon="0.17665">
        <ele>698.1</ele>
        <time>2025-03-16T10:59:56.735Z</time>
      </trkpt>
      <trkpt lat="43.02387" lon="0.17669">
        <ele>698.5</ele>
        <time>2025-03-16T11:00:00.735Z</time>
      </trkpt>
      <trkpt lat="43.02381" lon="0.17669">
        <ele>698</ele>
        <time>2025-03-16T11:00:08.735Z</time>
      </trkpt>
      <trkpt lat="43.02372" lon="0.17667">
        <ele>696.4</ele>
        <time>2025-03-16T11:00:20.735Z</time>
      </trkpt>
      <trkpt lat="43.02366" lon="0.17664">
        <ele>694.7</ele>
        <time>2025-03-16T11:00:23.735Z</time>
      </trkpt>
      <trkpt lat="43.02359" lon="0.17665">
        <ele>694</ele>
        <time>2025-03-16T11:00:35.735Z</time>
      </trkpt>
      <trkpt lat="43.02354" lon="0.1766">
        <ele>691.7</ele>
        <time>2025-03-16T11:00:41.735Z</time>
      </trkpt>
      <trkpt lat="43.02338" lon="0.17663">
        <ele>690.1</ele>
        <time>2025-03-16T11:02:01.735Z</time>
      </trkpt>
      <trkpt lat="43.02335" lon="0.17657">
        <ele>687.3</ele>
        <time>2025-03-16T11:02:41.735Z</time>
      </trkpt>
      <trkpt lat="43.02319" lon="0.17669">
        <ele>688.9</ele>
        <time>2025-03-16T11:03:13.735Z</time>
      </trkpt>
      <trkpt lat="43.02308" lon="0.17672">
        <ele>687.3</ele>
        <time>2025-03-16T11:03:29.735Z</time>
      </trkpt>
      <trkpt lat="43.02297" lon="0.17679">
        <ele>687.4</ele>
        <time>2025-03-16T11:03:45.735Z</time>
      </trkpt>
      <trkpt lat="43.02289" lon="0.17679">
        <ele>685.9</ele>
        <time>2025-03-16T11:04:01.735Z</time>
      </trkpt>
      <trkpt lat="43.0228" lon="0.17683">
        <ele>685.2</ele>
        <time>2025-03-16T11:04:17.735Z</time>
      </trkpt>
      <trkpt lat="43.02274" lon="0.17682">
        <ele>683.8</ele>
        <time>2025-03-16T11:04:21.735Z</time>
      </trkpt>
      <trkpt lat="43.02269" lon="0.17685">
        <ele>684</ele>
        <time>2025-03-16T11:04:29.735Z</time>
      </trkpt>
      <trkpt lat="43.02258" lon="0.17687">
        <ele>682.7</ele>
        <time>2025-03-16T11:04:45.735Z</time>
      </trkpt>
      <trkpt lat="43.02253" lon="0.17691">
        <ele>682.9</ele>
        <time>2025-03-16T11:04:57.735Z</time>
      </trkpt>
      <trkpt lat="43.02252" lon="0.17693">
        <ele>684</ele>
        <time>2025-03-16T11:05:01.735Z</time>
      </trkpt>
      <trkpt lat="43.02244" lon="0.17695">
        <ele>682.7</ele>
        <time>2025-03-16T11:05:13.735Z</time>
      </trkpt>
      <trkpt lat="43.02229" lon="0.17702">
        <ele>682.1</ele>
        <time>2025-03-16T11:05:37.735Z</time>
      </trkpt>
      <trkpt lat="43.02223" lon="0.1771">
        <ele>683.7</ele>
        <time>2025-03-16T11:06:25.735Z</time>
      </trkpt>
      <trkpt lat="43.02221" lon="0.17708">
        <ele>682.8</ele>
        <time>2025-03-16T11:06:57.735Z</time>
      </trkpt>
      <trkpt lat="43.02223" lon="0.17707">
        <ele>682.6</ele>
        <time>2025-03-16T11:07:29.735Z</time>
      </trkpt>
      <trkpt lat="43.02223" lon="0.1771">
        <ele>683.6</ele>
        <time>2025-03-16T11:08:01.735Z</time>
      </trkpt>
      <trkpt lat="43.02207" lon="0.17715">
        <ele>682.2</ele>
        <time>2025-03-16T11:08:49.735Z</time>
      </trkpt>
      <trkpt lat="43.02187" lon="0.17718">
        <ele>679.7</ele>
        <time>2025-03-16T11:09:09.735Z</time>
      </trkpt>
      <trkpt lat="43.02177" lon="0.17728">
        <ele>680.8</ele>
        <time>2025-03-16T11:09:21.735Z</time>
      </trkpt>
      <trkpt lat="43.02171" lon="0.17724">
        <ele>679.2</ele>
        <time>2025-03-16T11:09:29.735Z</time>
      </trkpt>
      <trkpt lat="43.02162" lon="0.17723">
        <ele>677.9</ele>
        <time>2025-03-16T11:09:37.735Z</time>
      </trkpt>
      <trkpt lat="43.02154" lon="0.17719">
        <ele>676.5</ele>
        <time>2025-03-16T11:09:45.735Z</time>
      </trkpt>
      <trkpt lat="43.02129" lon="0.17718">
        <ele>674.2</ele>
        <time>2025-03-16T11:10:09.735Z</time>
      </trkpt>
      <trkpt lat="43.02125" lon="0.17719">
        <ele>674.2</ele>
        <time>2025-03-16T11:10:13.735Z</time>
      </trkpt>
      <trkpt lat="43.02122" lon="0.17718">
        <ele>673.6</ele>
        <time>2025-03-16T11:10:15.735Z</time>
      </trkpt>
      <trkpt lat="43.02105" lon="0.17728">
        <ele>672.3</ele>
        <time>2025-03-16T11:10:31.735Z</time>
      </trkpt>
      <trkpt lat="43.02084" lon="0.17747">
        <ele>667.5</ele>
        <time>2025-03-16T11:10:55.735Z</time>
      </trkpt>
      <trkpt lat="43.02074" lon="0.17764">
        <ele>666.3</ele>
        <time>2025-03-16T11:11:11.735Z</time>
      </trkpt>
      <trkpt lat="43.02063" lon="0.17791">
        <ele>666.7</ele>
        <time>2025-03-16T11:11:35.735Z</time>
      </trkpt>
      <trkpt lat="43.02032" lon="0.1781">
        <ele>660.3</ele>
        <time>2025-03-16T11:12:07.735Z</time>
      </trkpt>
      <trkpt lat="43.02026" lon="0.17816">
        <ele>660.1</ele>
        <time>2025-03-16T11:12:15.735Z</time>
      </trkpt>
      <trkpt lat="43.0201" lon="0.17826">
        <ele>657.9</ele>
        <time>2025-03-16T11:12:31.735Z</time>
      </trkpt>
      <trkpt lat="43.01988" lon="0.17833">
        <ele>654.4</ele>
        <time>2025-03-16T11:12:55.735Z</time>
      </trkpt>
      <trkpt lat="43.01982" lon="0.17839">
        <ele>654.8</ele>
        <time>2025-03-16T11:13:03.736Z</time>
      </trkpt>
      <trkpt lat="43.01974" lon="0.17842">
        <ele>653.8</ele>
        <time>2025-03-16T11:13:11.735Z</time>
      </trkpt>
      <trkpt lat="43.0197" lon="0.17845">
        <ele>654</ele>
        <time>2025-03-16T11:13:15.735Z</time>
      </trkpt>
      <trkpt lat="43.01954" lon="0.17849">
        <ele>652.6</ele>
        <time>2025-03-16T11:13:47.735Z</time>
      </trkpt>
      <trkpt lat="43.01949" lon="0.17845">
        <ele>651.2</ele>
        <time>2025-03-16T11:14:11.735Z</time>
      </trkpt>
      <trkpt lat="43.01937" lon="0.17828">
        <ele>649.3</ele>
        <time>2025-03-16T11:14:31.735Z</time>
      </trkpt>
      <trkpt lat="43.01932" lon="0.17828">
        <ele>649.5</ele>
        <time>2025-03-16T11:14:35.735Z</time>
      </trkpt>
      <trkpt lat="43.01924" lon="0.17825">
        <ele>649.7</ele>
        <time>2025-03-16T11:14:47.735Z</time>
      </trkpt>
      <trkpt lat="43.01919" lon="0.17816">
        <ele>649.9</ele>
        <time>2025-03-16T11:14:55.735Z</time>
      </trkpt>
      <trkpt lat="43.01914" lon="0.17813">
        <ele>650.1</ele>
        <time>2025-03-16T11:14:59.735Z</time>
      </trkpt>
      <trkpt lat="43.01912" lon="0.17813">
        <ele>650.1</ele>
        <time>2025-03-16T11:15:01.735Z</time>
      </trkpt>
      <trkpt lat="43.01908" lon="0.17809">
        <ele>650.3</ele>
        <time>2025-03-16T11:15:05.735Z</time>
      </trkpt>
      <trkpt lat="43.01902" lon="0.1781">
        <ele>650.5</ele>
        <time>2025-03-16T11:15:11.735Z</time>
      </trkpt>
      <trkpt lat="43.01885" lon="0.17807">
        <ele>651.1</ele>
        <time>2025-03-16T11:15:27.735Z</time>
      </trkpt>
      <trkpt lat="43.01863" lon="0.17793">
        <ele>652</ele>
        <time>2025-03-16T11:15:51.735Z</time>
      </trkpt>
      <trkpt lat="43.01851" lon="0.17793">
        <ele>652.4</ele>
        <time>2025-03-16T11:16:03.735Z</time>
      </trkpt>
      <trkpt lat="43.01837" lon="0.17804">
        <ele>652.9</ele>
        <time>2025-03-16T11:16:19.735Z</time>
      </trkpt>
      <trkpt lat="43.01828" lon="0.17814">
        <ele>652.9</ele>
        <time>2025-03-16T11:16:51.735Z</time>
      </trkpt>
      <trkpt lat="43.01817" lon="0.17828">
        <ele>652.8</ele>
        <time>2025-03-16T11:16:59.735Z</time>
      </trkpt>
    </trkseg>
  </trk>
</gpx>